Time;durP1;ratioP1;P1;durP2;ratioP2;P2;SDS_P1;SDS_P2;PMS_P1;PMS_P2;Temp;Humidity;BMP_temperature;BMP_pressure;BME280_temperature;BME280_humidity;BME280_pressure;Samples;Min_cycle;Max_cycle;Signal;HPM_P1;HPM_P2
2021/06/08 00:01:03;;;;;;;45.70;36.87;;;17.70;99.90;;;;;;4886153;29;20468;-82
2021/06/08 00:03:31;;;;;;;41.67;37.37;;;17.70;99.90;;;;;;4889610;29;20456;-79
2021/06/08 00:05:58;;;;;;;42.57;37.77;;;17.70;99.90;;;;;;4891768;29;20499;-81
2021/06/08 00:08:24;;;;;;;44.00;35.90;;;17.70;99.90;;;;;;4891826;29;20456;-79
2021/06/08 00:10:51;;;;;;;42.50;37.10;;;17.70;99.90;;;;;;4886022;29;20468;-82
2021/06/08 00:13:17;;;;;;;42.93;37.60;;;17.70;99.90;;;;;;4884930;29;20508;-82
2021/06/08 00:15:43;;;;;;;39.93;34.90;;;17.70;99.90;;;;;;4885138;29;20604;-82
2021/06/08 00:18:10;;;;;;;39.27;35.07;;;17.60;99.90;;;;;;4885183;29;20455;-83
2021/06/08 00:20:37;;;;;;;48.43;39.03;;;17.70;99.90;;;;;;4884828;29;20469;-82
2021/06/08 00:23:04;;;;;;;42.90;37.60;;;17.70;99.90;;;;;;4887540;29;20465;-81
2021/06/08 00:25:30;;;;;;;42.77;38.37;;;17.70;99.90;;;;;;4886288;29;20501;-82
2021/06/08 00:27:57;;;;;;;40.37;36.07;;;17.70;99.90;;;;;;4885292;29;20456;-82
2021/06/08 00:30:25;;;;;;;43.90;36.30;;;17.70;99.90;;;;;;4885339;29;20982;-81
2021/06/08 00:32:51;;;;;;;41.67;37.23;;;17.70;99.90;;;;;;4884339;29;20469;-81
2021/06/08 00:35:17;;;;;;;39.43;35.27;;;17.70;99.90;;;;;;4885331;29;20478;-82
2021/06/08 00:37:45;;;;;;;44.50;36.83;;;17.70;99.90;;;;;;4884934;29;20466;-82
2021/06/08 00:40:12;;;;;;;44.80;37.00;;;17.60;99.90;;;;;;4884516;29;20458;-82
2021/06/08 00:42:38;;;;;;;41.93;37.33;;;17.60;99.90;;;;;;4885026;29;20460;-80
2021/06/08 00:45:07;;;;;;;42.63;38.03;;;17.60;99.90;;;;;;4885393;29;20856;-82
2021/06/08 00:47:33;;;;;;;43.07;36.70;;;17.60;99.90;;;;;;4885633;29;20467;-81
2021/06/08 00:49:59;;;;;;;43.60;37.20;;;17.60;99.90;;;;;;4884868;29;20555;-82
2021/06/08 00:52:26;;;;;;;41.03;36.57;;;17.60;99.90;;;;;;4884939;29;20496;-82
2021/06/08 00:54:53;;;;;;;43.40;33.73;;;17.60;99.90;;;;;;4884854;29;20477;-81
2021/06/08 00:57:20;;;;;;;41.83;36.10;;;17.70;99.90;;;;;;4884635;29;20462;-80
2021/06/08 00:59:46;;;;;;;39.00;32.93;;;17.70;99.90;;;;;;4885017;29;20889;-82
2021/06/08 01:02:14;;;;;;;23.60;21.27;;;17.70;99.90;;;;;;4883356;29;20474;-82
2021/06/08 01:04:40;;;;;;;16.10;14.70;;;17.70;99.90;;;;;;4883971;29;20545;-82
2021/06/08 01:07:07;;;;;;;18.37;16.57;;;17.70;99.90;;;;;;4883864;29;20453;-82
2021/06/08 01:09:33;;;;;;;15.70;14.20;;;17.70;99.90;;;;;;4883661;29;20525;-82
2021/06/08 01:12:01;;;;;;;14.93;13.40;;;17.70;99.90;;;;;;4883570;29;20463;-82
2021/06/08 01:14:27;;;;;;;15.57;14.03;;;17.60;99.90;;;;;;4883749;29;21089;-82
2021/06/08 01:16:53;;;;;;;16.63;15.03;;;17.50;99.90;;;;;;4884060;29;20449;-82
2021/06/08 01:19:20;;;;;;;17.40;15.90;;;17.50;99.90;;;;;;4884763;29;20520;-80
2021/06/08 01:21:47;;;;;;;17.80;16.17;;;17.40;99.90;;;;;;4884247;29;20556;-81
2021/06/08 01:24:13;;;;;;;16.87;15.17;;;17.50;99.90;;;;;;4885949;29;20464;-81
2021/06/08 01:26:40;;;;;;;19.03;17.40;;;17.50;99.90;;;;;;4887054;29;20489;-80
2021/06/08 01:29:06;;;;;;;17.70;16.00;;;17.50;99.90;;;;;;4886668;29;20457;-82
2021/06/08 01:31:34;;;;;;;18.20;16.47;;;17.60;99.90;;;;;;4885097;29;21032;-81
2021/06/08 01:34:03;;;;;;;18.20;16.30;;;17.60;99.90;;;;;;4884572;29;20547;-82
2021/06/08 01:36:34;;;;;;;19.30;17.30;;;17.60;99.90;;;;;;4885188;29;20529;-82
2021/06/08 01:39:01;;;;;;;17.97;16.07;;;17.60;99.90;;;;;;4885262;29;20448;-83
2021/06/08 01:41:28;;;;;;;18.27;16.37;;;17.70;99.90;;;;;;4884309;29;20825;-83
2021/06/08 01:43:54;;;;;;;19.30;17.30;;;17.70;99.90;;;;;;4884467;29;20468;-82
2021/06/08 01:46:23;;;;;;;17.97;16.17;;;17.60;99.90;;;;;;4884587;29;20508;-83
2021/06/08 01:48:50;;;;;;;20.23;18.20;;;17.60;99.90;;;;;;4885326;29;20461;-82
2021/06/08 01:51:25;;;;;;;22.63;20.43;;;17.70;99.90;;;;;;4888450;29;20523;-83
2021/06/08 01:54:05;;;;;;;23.20;20.90;;;17.70;99.90;;;;;;4887936;29;20460;-81
2021/06/08 01:56:33;;;;;;;24.37;21.77;;;17.60;99.90;;;;;;4887903;29;20461;-82
2021/06/08 01:59:15;;;;;;;24.53;22.10;;;17.60;99.90;;;;;;4887774;29;20543;-83
2021/06/08 02:01:49;;;;;;;28.20;25.30;;;17.60;99.90;;;;;;4887652;29;20461;-83
2021/06/08 02:04:23;;;;;;;26.60;23.80;;;17.60;99.90;;;;;;4886847;29;20468;-81
2021/06/08 02:07:02;;;;;;;28.27;25.07;;;17.60;99.90;;;;;;4887815;29;20549;-83
2021/06/08 02:09:39;;;;;;;28.57;25.67;;;17.70;99.90;;;;;;4887823;29;20456;-83
2021/06/08 02:12:11;;;;;;;28.30;25.40;;;17.60;99.90;;;;;;4887912;29;20527;-83
2021/06/08 02:14:42;;;;;;;29.77;26.67;;;17.60;99.90;;;;;;4887647;29;20703;-82
2021/06/08 02:17:16;;;;;;;27.80;24.93;;;17.70;99.90;;;;;;4887789;29;20532;-83
2021/06/08 02:19:45;;;;;;;30.67;27.57;;;17.70;99.90;;;;;;4887076;29;20947;-83
2021/06/08 02:22:12;;;;;;;27.27;24.40;;;17.70;99.90;;;;;;4887356;29;20493;-83
2021/06/08 02:24:41;;;;;;;30.00;25.90;;;17.70;99.90;;;;;;4887595;29;20546;-81
2021/06/08 02:27:09;;;;;;;30.20;26.63;;;17.60;99.90;;;;;;4887299;29;20492;-83
2021/06/08 02:29:37;;;;;;;31.83;28.00;;;17.60;99.90;;;;;;4887922;29;20489;-81
2021/06/08 02:32:04;;;;;;;33.07;28.63;;;17.60;99.90;;;;;;4886820;29;20464;-83
2021/06/08 02:34:31;;;;;;;33.57;29.23;;;17.60;99.90;;;;;;4887447;29;20485;-82
2021/06/08 02:36:58;;;;;;;33.57;29.40;;;17.50;99.90;;;;;;4889859;29;20471;-83
2021/06/08 02:39:25;;;;;;;35.23;29.87;;;17.50;99.90;;;;;;4887805;29;20469;-82
2021/06/08 02:41:56;;;;;;;33.90;30.30;;;17.50;99.90;;;;;;4888487;29;20480;-83
2021/06/08 02:44:23;;;;;;;38.33;32.67;;;17.50;99.90;;;;;;4893625;29;20476;-81
2021/06/08 02:46:51;;;;;;;32.00;28.23;;;17.50;99.90;;;;;;4894096;29;20497;-83
2021/06/08 02:49:18;;;;;;;35.57;31.23;;;17.50;99.90;;;;;;4887500;29;20964;-82
2021/06/08 02:51:45;;;;;;;37.57;33.40;;;17.40;99.90;;;;;;4888013;29;20470;-82
2021/06/08 02:54:13;;;;;;;41.77;34.90;;;17.40;99.90;;;;;;4887443;29;20448;-83
2021/06/08 02:56:39;;;;;;;41.43;36.70;;;17.30;99.90;;;;;;4887075;29;20456;-82
2021/06/08 02:59:09;;;;;;;37.33;32.63;;;17.30;99.90;;;;;;4886789;29;20460;-82
2021/06/08 03:01:40;;;;;;;39.43;34.27;;;17.30;99.90;;;;;;4886305;29;20457;-83
2021/06/08 03:04:09;;;;;;;36.03;32.20;;;17.30;99.90;;;;;;4886621;29;20520;-82
2021/06/08 03:06:39;;;;;;;37.07;33.00;;;17.30;99.90;;;;;;4886231;29;20496;-83
2021/06/08 03:09:08;;;;;;;37.90;33.73;;;17.30;99.90;;;;;;4886932;29;20995;-83
2021/06/08 03:11:37;;;;;;;38.97;33.07;;;17.40;99.90;;;;;;4886588;29;20460;-83
2021/06/08 03:14:08;;;;;;;42.90;36.37;;;17.40;99.90;;;;;;4886954;29;20472;-83
2021/06/08 03:16:37;;;;;;;43.23;35.40;;;17.30;99.90;;;;;;4888598;29;20497;-82
2021/06/08 03:19:07;;;;;;;40.53;35.90;;;17.30;99.90;;;;;;4888648;29;20978;-84
2021/06/08 03:21:37;;;;;;;39.37;33.07;;;17.30;99.90;;;;;;4888270;29;20464;-84
2021/06/08 03:24:07;;;;;;;48.57;36.10;;;17.30;99.90;;;;;;4888174;29;20477;-82
2021/06/08 03:26:35;;;;;;;43.60;37.27;;;17.30;99.90;;;;;;4888742;29;20491;-82
2021/06/08 03:29:04;;;;;;;38.27;33.93;;;17.40;99.90;;;;;;4888364;29;20530;-81
2021/06/08 03:31:35;;;;;;;47.77;39.30;;;17.40;99.90;;;;;;4888301;29;20970;-82
2021/06/08 03:34:01;;;;;;;47.33;35.70;;;17.40;99.90;;;;;;4887529;29;20468;-80
2021/06/08 03:36:28;;;;;;;46.67;38.30;;;17.40;99.90;;;;;;4886419;29;20977;-82
2021/06/08 03:38:57;;;;;;;41.53;36.90;;;17.30;99.90;;;;;;4886495;29;20444;-82
2021/06/08 03:41:24;;;;;;;43.50;37.90;;;17.30;99.90;;;;;;4885762;29;20464;-85
2021/06/08 03:43:51;;;;;;;44.53;39.60;;;17.30;99.90;;;;;;4886499;29;20457;-82
2021/06/08 03:46:18;;;;;;;46.53;39.70;;;17.30;99.90;;;;;;4886462;29;21022;-81
2021/06/08 03:48:45;;;;;;;48.57;42.03;;;17.40;99.90;;;;;;4887254;29;20822;-84
2021/06/08 03:51:12;;;;;;;49.07;36.87;;;17.40;99.90;;;;;;4887688;29;20461;-84
2021/06/08 03:53:39;;;;;;;49.93;40.10;;;17.40;99.90;;;;;;4886625;29;20550;-82
2021/06/08 03:56:06;;;;;;;44.67;36.60;;;17.40;99.90;;;;;;4887131;29;20477;-85
2021/06/08 03:58:33;;;;;;;43.60;37.40;;;17.50;99.90;;;;;;4886202;29;20472;-85
2021/06/08 04:01:01;;;;;;;42.27;35.77;;;17.60;99.90;;;;;;4886061;29;20457;-80
2021/06/08 04:03:28;;;;;;;40.67;35.83;;;17.60;99.90;;;;;;4885719;29;20457;-82
2021/06/08 04:05:56;;;;;;;41.70;34.47;;;17.60;99.90;;;;;;4885526;29;20500;-82
2021/06/08 04:08:25;;;;;;;42.17;34.07;;;17.70;99.90;;;;;;4884909;29;21023;-82
2021/06/08 04:10:52;;;;;;;41.53;36.20;;;17.70;99.90;;;;;;4884929;29;20467;-81
2021/06/08 04:13:19;;;;;;;40.53;36.13;;;17.70;99.90;;;;;;4885267;29;20460;-82
2021/06/08 04:15:48;;;;;;;42.50;37.57;;;17.80;99.90;;;;;;4885491;29;20477;-82
2021/06/08 04:18:14;;;;;;;42.97;34.70;;;17.80;99.90;;;;;;4885125;29;20462;-82
2021/06/08 04:20:40;;;;;;;44.10;37.27;;;17.60;99.90;;;;;;4884946;29;20461;-82
2021/06/08 04:23:08;;;;;;;44.53;39.37;;;17.60;99.90;;;;;;4884820;29;20460;-82
2021/06/08 04:25:35;;;;;;;42.97;37.20;;;17.50;99.90;;;;;;4885518;29;20501;-85
2021/06/08 04:28:02;;;;;;;48.13;38.10;;;17.60;99.90;;;;;;4885562;29;20462;-82
2021/06/08 04:30:28;;;;;;;43.50;37.00;;;17.50;99.90;;;;;;4884231;29;20505;-81
2021/06/08 04:32:55;;;;;;;44.03;36.30;;;17.50;99.90;;;;;;4884761;29;20465;-81
2021/06/08 04:35:21;;;;;;;49.57;37.70;;;17.50;99.90;;;;;;4884685;29;20562;-83
2021/06/08 04:37:48;;;;;;;46.23;38.60;;;17.50;99.90;;;;;;4884866;29;20468;-82
2021/06/08 04:40:17;;;;;;;44.10;38.40;;;17.50;99.90;;;;;;4892717;29;20441;-79
2021/06/08 04:42:46;;;;;;;41.30;36.90;;;17.60;99.90;;;;;;4901380;29;20457;-79
2021/06/08 04:45:12;;;;;;;42.33;35.00;;;17.60;99.90;;;;;;4901860;29;20482;-78
2021/06/08 04:47:39;;;;;;;43.00;37.03;;;17.70;99.90;;;;;;4892488;29;20477;-82
2021/06/08 04:50:07;;;;;;;42.80;38.27;;;17.70;99.90;;;;;;4884770;29;20475;-82
2021/06/08 04:52:33;;;;;;;46.93;38.40;;;17.70;99.90;;;;;;4884907;29;20495;-82
2021/06/08 04:55:00;;;;;;;38.23;33.37;;;17.60;99.90;;;;;;4885152;29;20481;-82
2021/06/08 04:57:28;;;;;;;40.57;36.17;;;17.60;99.90;;;;;;4885214;29;20458;-82
2021/06/08 05:00:01;;;;;;;43.70;38.10;;;17.60;99.90;;;;;;4884705;29;20472;-82
2021/06/08 05:02:35;;;;;;;43.33;37.33;;;17.70;99.90;;;;;;4884183;29;20468;-84
2021/06/08 05:05:06;;;;;;;43.47;36.00;;;17.80;99.90;;;;;;4885115;29;20460;-82
2021/06/08 05:07:36;;;;;;;40.73;35.27;;;17.70;99.90;;;;;;4896128;29;20465;-83
2021/06/08 05:10:04;;;;;;;39.87;34.57;;;17.80;99.90;;;;;;4890575;29;20459;-83
2021/06/08 05:12:34;;;;;;;45.13;37.10;;;17.70;99.90;;;;;;4886468;29;20457;-83
2021/06/08 05:15:01;;;;;;;43.43;37.10;;;17.70;99.90;;;;;;4884099;29;20545;-83
2021/06/08 05:17:31;;;;;;;43.77;37.00;;;17.70;99.90;;;;;;4884200;29;20516;-83
2021/06/08 05:19:58;;;;;;;41.83;37.30;;;17.70;99.90;;;;;;4884393;29;20457;-81
2021/06/08 05:22:25;;;;;;;44.73;35.90;;;17.70;99.90;;;;;;4885347;29;20486;-82
2021/06/08 05:24:52;;;;;;;40.07;35.67;;;17.70;99.90;;;;;;4889007;29;20478;-82
2021/06/08 05:27:21;;;;;;;37.77;33.77;;;17.80;99.90;;;;;;4888404;29;20944;-83
2021/06/08 05:29:52;;;;;;;46.13;35.13;;;17.90;99.90;;;;;;4888271;29;20470;-82
2021/06/08 05:32:18;;;;;;;36.93;32.93;;;17.90;99.90;;;;;;4888756;29;20460;-83
2021/06/08 05:34:45;;;;;;;38.30;34.30;;;17.90;99.90;;;;;;4888143;29;20528;-83
2021/06/08 05:37:13;;;;;;;38.40;34.30;;;18.00;99.90;;;;;;4887832;29;20490;-83
2021/06/08 05:39:40;;;;;;;37.33;33.33;;;18.00;99.90;;;;;;4891550;29;20469;-83
2021/06/08 05:42:08;;;;;;;36.83;32.90;;;18.00;99.90;;;;;;4897651;29;20460;-81
2021/06/08 05:44:35;;;;;;;37.87;32.87;;;18.10;99.90;;;;;;4899380;29;20478;-81
2021/06/08 05:47:04;;;;;;;43.63;33.97;;;18.10;99.90;;;;;;4899234;29;20499;-79
2021/06/08 05:49:31;;;;;;;40.33;35.80;;;18.10;99.90;;;;;;4899999;29;20469;-80
2021/06/08 05:51:59;;;;;;;36.77;32.87;;;18.10;99.90;;;;;;4900715;29;20447;-83
2021/06/08 05:54:27;;;;;;;38.90;33.07;;;18.10;99.90;;;;;;4900415;29;20474;-82
2021/06/08 05:56:54;;;;;;;38.17;34.00;;;18.10;99.90;;;;;;4900306;29;20537;-81
2021/06/08 05:59:20;;;;;;;37.40;33.30;;;18.20;99.90;;;;;;4900410;29;21026;-80
2021/06/08 06:01:48;;;;;;;39.50;34.37;;;18.20;99.90;;;;;;4895903;29;20449;-80
2021/06/08 06:04:17;;;;;;;38.23;34.07;;;18.20;99.90;;;;;;4890826;29;20451;-81
2021/06/08 06:06:44;;;;;;;38.13;33.23;;;18.10;99.90;;;;;;4888024;29;20486;-81
2021/06/08 06:09:11;;;;;;;39.27;34.80;;;18.20;99.90;;;;;;4891547;29;20439;-81
2021/06/08 06:11:39;;;;;;;38.97;34.77;;;18.20;99.90;;;;;;4891124;29;20458;-81
2021/06/08 06:14:07;;;;;;;35.97;32.07;;;18.20;99.90;;;;;;4886261;29;20453;-82
2021/06/08 06:16:36;;;;;;;39.10;33.57;;;18.20;99.90;;;;;;4891582;29;20453;-80
2021/06/08 06:19:04;;;;;;;35.97;32.07;;;18.20;99.90;;;;;;4891710;29;20512;-79
2021/06/08 06:21:32;;;;;;;36.80;32.67;;;18.20;99.90;;;;;;4884683;29;20450;-82
2021/06/08 06:24:00;;;;;;;39.93;34.97;;;18.10;99.90;;;;;;4879726;29;20838;-83
2021/06/08 06:26:27;;;;;;;35.50;31.77;;;18.20;99.90;;;;;;4878045;29;20855;-82
2021/06/08 06:28:54;;;;;;;38.90;34.47;;;18.10;99.90;;;;;;4884332;29;20449;-84
2021/06/08 06:31:20;;;;;;;39.30;33.60;;;18.10;99.90;;;;;;4889602;29;20449;-79
2021/06/08 06:33:51;;;;;;;42.20;36.17;;;17.90;99.90;;;;;;4884953;29;20459;-81
2021/06/08 06:36:18;;;;;;;41.60;35.20;;;17.90;99.90;;;;;;4888405;29;20466;-84
2021/06/08 06:38:49;;;;;;;38.93;34.80;;;17.80;99.90;;;;;;4894506;29;20465;-79
2021/06/08 06:41:17;;;;;;;37.30;33.37;;;17.90;99.90;;;;;;4882557;29;20457;-82
2021/06/08 06:43:49;;;;;;;42.50;35.63;;;17.90;99.90;;;;;;4890880;29;20460;-81
2021/06/08 06:46:16;;;;;;;38.60;32.67;;;17.90;99.90;;;;;;4866274;29;20491;-81
2021/06/08 06:48:43;;;;;;;37.93;33.73;;;17.90;99.90;;;;;;4869265;29;20468;-78
2021/06/08 06:51:11;;;;;;;42.87;36.67;;;18.00;99.90;;;;;;4870893;29;20463;-80
2021/06/08 06:53:37;;;;;;;36.43;32.47;;;18.10;99.90;;;;;;4870625;29;20448;-80
2021/06/08 06:56:06;;;;;;;37.00;33.10;;;18.10;99.90;;;;;;4870214;29;20475;-79
2021/06/08 06:58:33;;;;;;;36.73;32.90;;;18.10;99.90;;;;;;4875304;29;20439;-81
2021/06/08 07:00:59;;;;;;;38.07;32.17;;;18.10;99.90;;;;;;4873251;29;20536;-80
2021/06/08 07:03:30;;;;;;;37.77;32.13;;;18.20;99.90;;;;;;4876364;29;20451;-79
2021/06/08 07:05:58;;;;;;;38.57;32.67;;;18.20;99.90;;;;;;4889516;29;20499;-81
2021/06/08 07:08:25;;;;;;;38.70;34.10;;;18.20;99.90;;;;;;4892663;29;20520;-80
2021/06/08 07:10:53;;;;;;;38.10;34.00;;;18.20;99.90;;;;;;4884457;29;20474;-79
2021/06/08 07:13:21;;;;;;;40.53;33.90;;;18.20;99.90;;;;;;4883356;29;20443;-78
2021/06/08 07:15:49;;;;;;;40.20;35.83;;;18.20;99.90;;;;;;4884085;29;20491;-78
2021/06/08 07:18:15;;;;;;;36.13;32.03;;;18.20;99.90;;;;;;4883629;29;20434;-79
2021/06/08 07:20:42;;;;;;;39.07;35.07;;;18.20;99.90;;;;;;4884174;29;20458;-79
2021/06/08 07:23:10;;;;;;;34.13;29.73;;;18.20;99.90;;;;;;4880259;29;20458;-81
2021/06/08 07:25:38;;;;;;;39.37;33.70;;;18.40;99.90;;;;;;4879691;29;20504;-81
2021/06/08 07:28:06;;;;;;;34.47;30.23;;;18.40;99.90;;;;;;4881837;29;20466;-81
2021/06/08 07:30:37;;;;;;;34.67;31.10;;;18.50;99.90;;;;;;4881817;29;20438;-82
2021/06/08 07:33:09;;;;;;;35.73;31.93;;;18.50;99.90;;;;;;4882429;29;20443;-81
2021/06/08 07:35:40;;;;;;;36.37;32.50;;;18.40;99.90;;;;;;4882014;29;20480;-81
2021/06/08 07:38:10;;;;;;;33.40;29.80;;;18.40;99.90;;;;;;4881466;29;20463;-81
2021/06/08 07:40:40;;;;;;;31.80;28.40;;;18.50;99.90;;;;;;4871955;29;20798;-80
2021/06/08 07:43:09;;;;;;;34.57;30.70;;;18.40;99.90;;;;;;4870225;29;20452;-80
2021/06/08 07:45:43;;;;;;;34.30;30.93;;;18.40;99.90;;;;;;4872001;29;20486;-81
2021/06/08 07:48:15;;;;;;;33.77;30.37;;;18.40;99.90;;;;;;4869548;29;20507;-80
2021/06/08 07:50:44;;;;;;;37.90;33.07;;;18.50;99.90;;;;;;4873384;29;20463;-80
2021/06/08 07:53:10;;;;;;;34.33;29.27;;;18.50;99.90;;;;;;4866265;29;20459;-83
2021/06/08 07:55:42;;;;;;;36.80;33.13;;;18.50;99.90;;;;;;4871211;29;20538;-82
2021/06/08 07:58:09;;;;;;;36.97;33.10;;;18.70;99.90;;;;;;4871364;29;20484;-82
2021/06/08 08:00:37;;;;;;;37.00;31.70;;;18.70;99.90;;;;;;4866646;29;20462;-80
2021/06/08 08:05:45;;;;;;;35.00;31.23;;;18.80;99.90;;;;;;4856575;29;20495;-80
2021/06/08 08:08:14;;;;;;;31.67;28.37;;;18.90;99.90;;;;;;4847249;29;20479;-79
2021/06/08 08:10:41;;;;;;;34.43;30.77;;;18.90;99.90;;;;;;4847689;29;20461;-80
2021/06/08 08:13:07;;;;;;;33.73;30.30;;;19.00;99.90;;;;;;4847614;29;20461;-78
2021/06/08 08:15:33;;;;;;;34.03;29.90;;;19.00;99.90;;;;;;4848058;29;20480;-79
2021/06/08 08:18:01;;;;;;;36.60;32.70;;;19.00;99.90;;;;;;4849037;29;20469;-77
2021/06/08 08:20:41;;;;;;;39.37;32.73;;;18.90;99.90;;;;;;4848102;29;20460;-80
2021/06/08 08:23:07;;;;;;;33.40;30.03;;;18.80;99.90;;;;;;4847435;29;20994;-79
2021/06/08 08:25:33;;;;;;;34.77;31.37;;;18.80;99.90;;;;;;4849259;29;20485;-79
2021/06/08 08:27:59;;;;;;;36.00;32.10;;;18.80;99.90;;;;;;4866705;29;20450;-77
2021/06/08 08:30:26;;;;;;;37.07;33.27;;;18.80;99.90;;;;;;4863658;29;20487;-79
2021/06/08 08:32:52;;;;;;;37.47;33.60;;;18.80;99.90;;;;;;4864238;29;20868;-79
2021/06/08 08:35:20;;;;;;;38.03;33.97;;;18.70;99.90;;;;;;4866544;29;20483;-79
2021/06/08 08:38:01;;;;;;;36.63;32.93;;;18.60;99.90;;;;;;4827029;29;20522;-80
2021/06/08 08:40:27;;;;;;;38.17;34.07;;;18.70;99.90;;;;;;4867939;29;20465;-78
2021/06/08 08:42:54;;;;;;;36.40;32.53;;;18.70;99.90;;;;;;4867225;29;20517;-79
2021/06/08 08:45:22;;;;;;;34.67;31.13;;;18.60;99.90;;;;;;4867095;29;20479;-78
2021/06/08 08:47:48;;;;;;;38.53;34.60;;;18.70;99.90;;;;;;4867083;29;20877;-79
2021/06/08 08:50:15;;;;;;;35.93;32.33;;;18.80;99.90;;;;;;4867068;29;20470;-78
2021/06/08 08:52:45;;;;;;;36.33;32.60;;;18.80;99.90;;;;;;4866401;29;20472;-79
2021/06/08 08:55:13;;;;;;;36.13;32.47;;;18.80;99.90;;;;;;4866949;29;20540;-78
2021/06/08 08:57:42;;;;;;;36.17;32.70;;;18.80;99.90;;;;;;4864701;29;20451;-78
2021/06/08 09:00:10;;;;;;;38.10;34.00;;;18.90;99.90;;;;;;4865067;29;20463;-78
2021/06/08 09:02:37;;;;;;;34.60;30.90;;;19.00;99.90;;;;;;4863702;29;20474;-79
2021/06/08 09:05:04;;;;;;;35.93;32.23;;;19.10;99.90;;;;;;4863841;29;20479;-80
2021/06/08 09:07:31;;;;;;;35.17;31.60;;;19.20;99.90;;;;;;4864390;29;20511;-80
2021/06/08 09:09:59;;;;;;;38.20;34.40;;;19.20;99.90;;;;;;4870267;29;20467;-80
2021/06/08 09:12:25;;;;;;;35.43;32.00;;;19.30;99.90;;;;;;4872955;29;20459;-80
2021/06/08 09:14:51;;;;;;;36.30;32.70;;;19.40;99.90;;;;;;4862778;29;20483;-79
2021/06/08 09:17:20;;;;;;;36.93;32.07;;;19.50;99.90;;;;;;4876346;29;20457;-79
2021/06/08 09:19:47;;;;;;;36.87;33.30;;;19.50;99.90;;;;;;4864204;29;20463;-79
2021/06/08 09:22:14;;;;;;;34.50;31.03;;;19.70;99.90;;;;;;4861944;29;20458;-79
2021/06/08 09:24:43;;;;;;;35.97;32.40;;;19.80;99.90;;;;;;4862971;29;20494;-80
2021/06/08 09:27:12;;;;;;;38.80;35.13;;;19.90;99.90;;;;;;4862940;29;20563;-79
2021/06/08 09:29:40;;;;;;;39.93;35.83;;;19.90;99.90;;;;;;4863139;29;20971;-80
2021/06/08 09:32:21;;;;;;;35.33;32.00;;;20.00;99.90;;;;;;4865042;29;20467;-79
2021/06/08 09:34:51;;;;;;;33.57;30.10;;;20.10;99.90;;;;;;4864669;29;21047;-79
2021/06/08 09:37:33;;;;;;;35.50;32.20;;;20.20;99.90;;;;;;4874945;29;20460;-80
2021/06/08 09:40:00;;;;;;;34.93;31.47;;;20.20;99.90;;;;;;4871503;29;20467;-79
2021/06/08 09:42:29;;;;;;;37.50;33.70;;;20.20;99.90;;;;;;4867702;29;20834;-80
2021/06/08 09:45:13;;;;;;;35.27;31.73;;;20.10;99.90;;;;;;4862406;29;20478;-79
2021/06/08 09:47:41;;;;;;;33.80;30.60;;;20.30;99.90;;;;;;4851950;29;20495;-80
2021/06/08 09:50:29;;;;;;;35.30;31.43;;;20.50;99.90;;;;;;4874853;29;20464;-79
2021/06/08 09:53:14;;;;;;;33.50;30.20;;;20.70;99.90;;;;;;4863074;29;20463;-79
2021/06/08 09:55:56;;;;;;;36.30;32.43;;;20.90;99.90;;;;;;4861533;29;20479;-79
2021/06/08 09:58:26;;;;;;;35.17;31.57;;;20.90;99.90;;;;;;4845835;29;20477;-79
2021/06/08 10:01:09;;;;;;;32.57;29.47;;;20.90;99.90;;;;;;4846723;29;20454;-79
2021/06/08 10:03:38;;;;;;;35.17;31.80;;;21.00;99.90;;;;;;4846512;29;20464;-79
2021/06/08 10:06:05;;;;;;;33.10;29.90;;;21.10;99.90;;;;;;4847496;29;20512;-78
2021/06/08 10:08:32;;;;;;;33.30;30.10;;;21.20;99.90;;;;;;4845912;29;20465;-80
2021/06/08 10:11:00;;;;;;;33.13;29.83;;;21.20;99.90;;;;;;4849084;29;20454;-79
2021/06/08 10:13:28;;;;;;;34.87;31.53;;;21.20;99.90;;;;;;4849965;29;20469;-80
2021/06/08 10:15:57;;;;;;;33.10;29.80;;;21.20;99.90;;;;;;4849517;29;20481;-79
2021/06/08 10:18:24;;;;;;;34.07;30.83;;;21.20;99.90;;;;;;4849925;29;20473;-79
2021/06/08 10:20:53;;;;;;;35.17;31.67;;;21.10;99.90;;;;;;4851710;29;20466;-78
2021/06/08 10:23:22;;;;;;;35.97;32.47;;;21.10;99.90;;;;;;4850198;29;20494;-79
2021/06/08 10:25:49;;;;;;;33.37;30.27;;;21.00;99.90;;;;;;4849503;29;20482;-80
2021/06/08 10:28:16;;;;;;;33.20;29.80;;;21.00;99.90;;;;;;4850117;29;20526;-79
2021/06/08 10:30:46;;;;;;;34.70;31.30;;;21.10;99.90;;;;;;4852502;29;20466;-82
2021/06/08 10:33:40;;;;;;;36.80;33.30;;;21.30;99.90;;;;;;4866472;29;20472;-82
2021/06/08 10:36:07;;;;;;;31.77;28.87;;;21.40;99.90;;;;;;4876855;29;20976;-82
2021/06/08 10:38:33;;;;;;;33.17;30.20;;;21.50;99.90;;;;;;4874540;29;20492;-82
2021/06/08 10:40:59;;;;;;;33.73;30.43;;;21.70;99.90;;;;;;4876160;29;20481;-82
2021/06/08 10:43:27;;;;;;;32.57;29.67;;;21.80;99.90;;;;;;4877277;29;20973;-81
2021/06/08 10:45:57;;;;;;;33.73;30.60;;;22.00;99.90;;;;;;4874372;29;20482;-83
2021/06/08 10:51:36;;;;;;;33.60;30.33;;;22.50;99.90;;;;;;4871705;29;20463;-82
2021/06/08 10:54:17;;;;;;;33.07;29.83;;;22.50;99.90;;;;;;4870285;29;20467;-82
2021/06/08 10:56:57;;;;;;;30.50;27.80;;;22.60;99.90;;;;;;4864416;29;20458;-82
2021/06/08 10:59:35;;;;;;;30.67;27.80;;;22.70;99.90;;;;;;4878610;29;20458;-82
2021/06/08 11:02:03;;;;;;;31.50;28.70;;;22.90;99.90;;;;;;4878571;29;20457;-83
2021/06/08 11:04:49;;;;;;;31.30;28.57;;;22.80;99.90;;;;;;4873399;29;20474;-82
2021/06/08 11:07:16;;;;;;;31.13;28.23;;;22.80;99.90;;;;;;4872074;29;20518;-84
2021/06/08 11:09:42;;;;;;;29.37;26.77;;;22.90;99.90;;;;;;4875313;29;20467;-83
2021/06/08 11:12:27;;;;;;;31.27;28.47;;;23.00;99.90;;;;;;4874495;29;20499;-83
2021/06/08 11:15:00;;;;;;;29.33;26.67;;;23.00;99.90;;;;;;4882802;29;20502;-84
2021/06/08 11:17:37;;;;;;;30.50;27.80;;;23.20;99.90;;;;;;4883568;29;20519;-83
2021/06/08 11:20:18;;;;;;;30.80;27.90;;;23.40;99.90;;;;;;4880979;29;20459;-79
2021/06/08 11:22:59;;;;;;;30.90;28.17;;;23.40;99.90;;;;;;4880270;29;20514;-81
2021/06/08 11:25:44;;;;;;;30.60;27.80;;;23.30;99.90;;;;;;4881861;29;20464;-84
2021/06/08 11:28:15;;;;;;;28.83;26.17;;;23.30;99.90;;;;;;4883591;29;20452;-84
2021/06/08 11:30:45;;;;;;;27.87;25.57;;;23.40;99.90;;;;;;4884607;29;20465;-85
2021/06/08 11:39:19;;;;;;;28.53;25.73;;;23.70;99.90;;;;;;5011076;23;20482;-84
2021/06/08 11:41:56;;;;;;;30.10;27.20;;;23.70;99.90;;;;;;4896384;29;20454;-82
2021/06/08 11:44:22;;;;;;;27.93;25.67;;;23.60;99.90;;;;;;4899896;29;20445;-83
2021/06/08 11:46:54;;;;;;;28.57;26.17;;;23.80;99.90;;;;;;4903886;29;20559;-86
2021/06/08 11:49:23;;;;;;;30.27;27.67;;;24.00;99.90;;;;;;4904336;29;20467;-85
2021/06/08 11:55:55;;;;;;;28.47;25.87;;;24.10;99.90;;;;;;4901513;29;20494;-86
2021/06/08 12:08:49;;;;;;;31.00;28.27;;;24.20;99.90;;;;;;4812759;29;20467;-86
2021/06/08 12:32:10;;;;;;;27.67;25.27;;;25.90;99.80;;;;;;4677037;30;20545;-83
2021/06/08 12:38:45;;;;;;;;;;;;;;;;;;;;;
2021/06/08 12:51:21;;;;;;;28.13;25.73;;;26.60;96.60;;;;;;4800134;29;20513;-84
2021/06/08 12:54:20;;;;;;;27.77;25.50;;;26.10;97.50;;;;;;4828630;29;20468;-84
2021/06/08 13:00:15;;;;;;;26.50;24.30;;;25.70;98.10;;;;;;4704388;30;20560;-80
2021/06/08 13:02:41;;;;;;;27.20;25.00;;;26.00;99.20;;;;;;4763401;30;20509;-81
2021/06/08 13:05:20;;;;;;;28.50;26.30;;;26.60;99.00;;;;;;4799448;29;20511;-83
2021/06/08 13:11:01;;;;;;;24.00;22.03;;;28.10;96.20;;;;;;4777875;29;20480;-82
2021/06/08 13:13:50;;;;;;;24.40;22.40;;;29.10;95.80;;;;;;4815043;29;20503;-83
2021/06/08 13:16:53;;;;;;;25.00;22.93;;;29.70;92.40;;;;;;4834110;29;20484;-84
2021/06/08 13:19:22;;;;;;;24.70;22.80;;;30.10;91.50;;;;;;4865664;29;20474;-84
2021/06/08 13:21:49;;;;;;;22.50;20.90;;;30.30;90.70;;;;;;4869443;29;20877;-83
2021/06/08 13:24:17;;;;;;;24.30;22.50;;;30.70;90.00;;;;;;4870221;29;20555;-85
2021/06/08 13:26:46;;;;;;;25.10;23.27;;;30.60;87.20;;;;;;4870871;29;20504;-84
2021/06/08 13:29:21;;;;;;;23.13;21.40;;;30.00;86.40;;;;;;4868826;29;20474;-84
2021/06/08 13:31:50;;;;;;;21.47;19.73;;;29.70;87.50;;;;;;4869866;29;20469;-85
2021/06/08 13:34:22;;;;;;;23.47;21.47;;;29.70;90.10;;;;;;4870031;29;20554;-84
2021/06/08 13:36:49;;;;;;;23.43;21.63;;;29.90;89.40;;;;;;4890998;29;20448;-84
2021/06/08 13:39:19;;;;;;;23.20;21.40;;;30.00;90.00;;;;;;4903461;29;20514;-83
2021/06/08 13:41:48;;;;;;;21.97;20.17;;;30.10;86.70;;;;;;4899764;29;20467;-84
2021/06/08 13:44:15;;;;;;;21.30;19.53;;;30.10;86.90;;;;;;4900532;29;20466;-83
2021/06/08 13:46:54;;;;;;;22.53;20.93;;;30.30;87.50;;;;;;4903802;29;20547;-84